createdAt,value
2019-05-07T00:01:09.139Z,9.42
2019-05-07T00:03:38.684Z,9.32
2019-05-07T00:06:08.281Z,9.48
2019-05-07T00:08:37.817Z,9.47
2019-05-07T00:11:07.427Z,9.53
2019-05-07T00:13:37.002Z,9.46
2019-05-07T00:16:06.608Z,9.67
2019-05-07T00:18:36.128Z,9.69
2019-05-07T00:21:05.739Z,9.58
2019-05-07T00:23:35.322Z,9.68
2019-05-07T00:26:06.614Z,9.52
2019-05-07T00:28:36.207Z,9.66
2019-05-07T00:31:05.704Z,9.70
2019-05-07T00:33:36.176Z,9.81
2019-05-07T00:36:12.438Z,9.88
2019-05-07T00:38:44.258Z,9.75
2019-05-07T00:41:25.559Z,9.87
2019-05-07T00:43:56.833Z,9.93
2019-05-07T00:46:29.050Z,9.85
2019-05-07T00:48:58.679Z,9.91
2019-05-07T00:51:35.231Z,9.92
2019-05-07T00:54:05.786Z,9.86
2019-05-07T00:56:35.349Z,9.87
2019-05-07T00:59:05.026Z,9.88
2019-05-07T01:01:35.356Z,9.83
2019-05-07T01:04:05.243Z,9.83
2019-05-07T01:06:34.769Z,9.76
2019-05-07T01:09:06.071Z,9.85
2019-05-07T01:11:35.567Z,9.86
2019-05-07T01:14:05.429Z,9.91
2019-05-07T01:16:34.998Z,9.82
2019-05-07T01:19:04.528Z,9.69
2019-05-07T01:21:34.055Z,9.86
2019-05-07T01:24:04.019Z,9.91
2019-05-07T01:26:33.735Z,9.92
2019-05-07T01:29:03.553Z,9.91
2019-05-07T01:31:49.947Z,9.86
2019-05-07T01:34:43.885Z,9.72
2019-05-07T01:37:13.420Z,9.75
2019-05-07T01:39:43.067Z,9.75
2019-05-07T01:42:12.883Z,9.75
2019-05-07T01:44:42.383Z,9.95
2019-05-07T01:47:13.030Z,9.98
2019-05-07T01:49:42.650Z,10.06
2019-05-07T01:52:13.319Z,9.97
2019-05-07T01:54:42.976Z,9.94
2019-05-07T01:57:12.506Z,9.96
2019-05-07T01:59:42.642Z,10.27
2019-05-07T02:02:19.853Z,10.16
2019-05-07T02:05:04.748Z,10.17
2019-05-07T02:07:38.485Z,9.70
2019-05-07T02:10:14.387Z,9.37
2019-05-07T02:12:44.042Z,9.35
2019-05-07T02:15:13.729Z,9.26
2019-05-07T02:17:43.236Z,9.47
2019-05-07T02:20:13.421Z,9.61
2019-05-07T02:22:43.001Z,9.57
2019-05-07T02:25:12.839Z,9.61
2019-05-07T02:27:42.350Z,9.40
2019-05-07T02:30:14.786Z,9.63
2019-05-07T02:32:43.629Z,9.69
2019-05-07T02:35:13.791Z,10.05
2019-05-07T02:37:53.529Z,10.08
2019-05-07T02:40:28.095Z,9.86
2019-05-07T02:42:57.605Z,9.78
2019-05-07T02:46:15.977Z,9.96
2019-05-07T02:48:33.474Z,9.91
2019-05-07T02:51:13.276Z,9.82
2019-05-07T02:54:07.735Z,10.34
2019-05-07T02:56:37.279Z,10.03
2019-05-07T02:59:06.802Z,9.92
2019-05-07T03:01:36.549Z,9.82
2019-05-07T03:04:06.219Z,9.69
2019-05-07T03:06:35.829Z,9.55
2019-05-07T03:09:06.576Z,9.60
2019-05-07T03:11:36.210Z,9.66
2019-05-07T03:14:05.761Z,9.93
2019-05-07T03:16:43.790Z,9.84
2019-05-07T03:19:06.694Z,10.03
2019-05-07T03:21:55.380Z,9.88
2019-05-07T03:24:34.287Z,9.78
2019-05-07T03:27:03.442Z,9.77
2019-05-07T03:29:33.661Z,9.97
2019-05-07T03:32:39.431Z,9.86
2019-05-07T03:35:37.333Z,9.73
2019-05-07T03:38:05.006Z,9.63
2019-05-07T03:40:35.447Z,9.46
2019-05-07T03:43:06.256Z,9.29
2019-05-07T03:45:47.638Z,9.32
2019-05-07T03:48:18.906Z,9.29
2019-05-07T03:50:48.438Z,9.27
2019-05-07T03:53:17.943Z,9.23
2019-05-07T03:55:47.549Z,9.13
2019-05-07T03:58:17.131Z,9.20
2019-05-07T04:00:46.766Z,9.24
2019-05-07T04:03:19.237Z,9.17
2019-05-07T04:05:47.692Z,9.27
2019-05-07T04:08:17.173Z,9.29
2019-05-07T04:10:46.760Z,9.33
2019-05-07T04:13:16.339Z,9.33
2019-05-07T04:15:45.851Z,9.32
2019-05-07T04:18:15.419Z,9.33
2019-05-07T04:20:44.906Z,9.32
2019-05-07T04:23:14.424Z,9.37
2019-05-07T04:25:55.473Z,9.34
2019-05-07T04:28:33.445Z,9.33
2019-05-07T04:31:03.149Z,9.34
2019-05-07T04:33:39.016Z,9.36
2019-05-07T04:36:19.019Z,9.33
2019-05-07T04:38:48.566Z,9.36
2019-05-07T04:41:18.057Z,9.35
2019-05-07T04:43:47.764Z,9.38
2019-05-07T04:46:17.238Z,9.33
2019-05-07T04:48:46.943Z,9.25
2019-05-07T04:51:23.066Z,9.30
2019-05-07T04:53:54.149Z,9.31
2019-05-07T04:56:23.792Z,9.31
2019-05-07T04:58:53.582Z,9.42
2019-05-07T05:01:24.708Z,9.36
2019-05-07T05:03:54.419Z,9.28
2019-05-07T05:06:24.359Z,9.06
2019-05-07T05:08:56.294Z,9.23
2019-05-07T05:11:25.411Z,9.26
2019-05-07T05:13:55.158Z,9.31
2019-05-07T05:16:25.801Z,9.22
2019-05-07T05:18:56.429Z,9.04
2019-05-07T05:21:43.571Z,9.23
2019-05-07T05:24:16.879Z,9.18
2019-05-07T05:26:46.354Z,8.88
2019-05-07T05:29:16.226Z,9.29
2019-05-07T05:31:45.718Z,9.49
2019-05-07T05:34:15.287Z,9.23
2019-05-07T05:36:44.869Z,8.99
2019-05-07T05:39:14.478Z,8.79
2019-05-07T05:41:46.022Z,9.28
2019-05-07T05:44:22.768Z,9.27
2019-05-07T05:46:52.657Z,9.04
2019-05-07T05:49:22.987Z,9.11
2019-05-07T05:52:17.145Z,8.84
2019-05-07T05:54:54.129Z,9.18
2019-05-07T05:57:46.052Z,9.08
2019-05-07T06:00:34.704Z,9.18
2019-05-07T06:03:26.313Z,9.21
2019-05-07T06:06:21.955Z,9.28
2019-05-07T06:08:58.296Z,9.04
2019-05-07T06:12:02.738Z,8.98
2019-05-07T06:14:36.033Z,9.30
2019-05-07T06:17:23.194Z,8.90
2019-05-07T06:20:02.955Z,9.03
2019-05-07T06:22:54.358Z,9.05
2019-05-07T06:25:24.940Z,9.49
2019-05-07T06:27:54.829Z,9.77
2019-05-07T06:30:24.311Z,9.80
2019-05-07T06:32:53.802Z,9.79
2019-05-07T06:35:23.271Z,9.73
2019-05-07T06:37:52.877Z,9.88
2019-05-07T06:40:42.394Z,10.17
2019-05-07T06:43:29.096Z,10.17
2019-05-07T06:45:59.105Z,10.28
2019-05-07T06:48:38.982Z,10.24
2019-05-07T06:51:00.302Z,10.09
2019-05-07T06:53:33.284Z,10.19
2019-05-07T06:56:03.171Z,10.50
2019-05-07T06:58:44.313Z,10.70
2019-05-07T07:01:27.687Z,10.56
2019-05-07T07:04:08.767Z,10.09
2019-05-07T07:06:58.759Z,10.26
2019-05-07T07:09:34.384Z,10.67
2019-05-07T07:12:05.905Z,10.68
2019-05-07T07:14:35.424Z,10.27
2019-05-07T07:17:05.075Z,10.58
2019-05-07T07:19:36.232Z,10.79
2019-05-07T07:22:05.831Z,11.02
2019-05-07T07:24:35.321Z,11.30
2019-05-07T07:27:04.903Z,11.41
2019-05-07T07:29:36.351Z,11.39
2019-05-07T07:32:06.919Z,11.25
2019-05-07T07:34:42.686Z,11.27
2019-05-07T07:37:34.982Z,11.57
2019-05-07T07:40:37.093Z,11.59
2019-05-07T07:43:07.365Z,11.37
2019-05-07T07:45:36.914Z,11.42
2019-05-07T07:48:06.525Z,11.87
2019-05-07T07:50:36.231Z,11.61
2019-05-07T07:53:05.792Z,11.72
2019-05-07T07:55:42.558Z,11.72
2019-05-07T07:58:18.565Z,11.77
2019-05-07T08:00:54.404Z,11.85
2019-05-07T08:03:23.938Z,12.06
2019-05-07T08:05:53.528Z,12.03
2019-05-07T08:08:23.241Z,12.06
2019-05-07T08:10:52.737Z,12.16
2019-05-07T08:14:12.416Z,12.20
2019-05-07T08:16:42.937Z,12.28
2019-05-07T08:19:21.669Z,12.48
2019-05-07T08:21:43.985Z,12.46
2019-05-07T08:24:13.532Z,12.65
2019-05-07T08:26:43.074Z,12.68
2019-05-07T08:29:12.642Z,12.78
2019-05-07T08:31:57.907Z,12.89
2019-05-07T08:34:34.672Z,12.87
2019-05-07T08:37:04.216Z,12.93
2019-05-07T08:39:33.693Z,13.26
2019-05-07T08:42:03.248Z,13.23
2019-05-07T08:44:54.517Z,13.51
2019-05-07T08:47:48.945Z,13.42
2019-05-07T08:50:18.494Z,13.37
2019-05-07T08:52:48.068Z,13.51
2019-05-07T08:55:17.900Z,13.57
2019-05-07T08:57:47.881Z,13.60
2019-05-07T09:00:22.320Z,13.86
2019-05-07T09:02:52.434Z,13.83
2019-05-07T09:05:22.186Z,14.20
2019-05-07T09:07:51.829Z,14.08
2019-05-07T09:10:21.875Z,14.23
2019-05-07T09:12:52.602Z,14.37
2019-05-07T09:15:22.712Z,14.70
2019-05-07T09:17:52.655Z,15.07
2019-05-07T09:20:22.918Z,14.99
2019-05-07T09:22:52.543Z,15.01
2019-05-07T09:25:22.400Z,14.94
2019-05-07T09:27:53.121Z,14.98
2019-05-07T09:30:42.149Z,14.83
2019-05-07T09:33:20.361Z,14.83
2019-05-07T09:35:52.841Z,14.77
2019-05-07T09:38:22.521Z,14.82
2019-05-07T09:40:52.554Z,15.01
2019-05-07T09:43:22.159Z,15.01
2019-05-07T09:45:52.312Z,15.30
2019-05-07T09:48:22.212Z,15.27
2019-05-07T09:50:53.062Z,15.64
2019-05-07T09:54:32.375Z,15.35
2019-05-07T09:56:53.627Z,15.63
2019-05-07T09:59:23.196Z,16.44
2019-05-07T10:01:52.742Z,16.34
2019-05-07T10:04:22.524Z,15.93
2019-05-07T10:06:52.138Z,16.21
2019-05-07T10:09:22.321Z,16.73
2019-05-07T10:12:03.908Z,16.63
2019-05-07T10:14:33.487Z,16.63
2019-05-07T10:17:17.777Z,16.76
2019-05-07T10:19:47.562Z,17.14
2019-05-07T10:22:17.048Z,16.75
2019-05-07T10:24:46.621Z,16.48
2019-05-07T10:27:16.174Z,16.72
2019-05-07T10:29:45.833Z,16.70
2019-05-07T10:32:15.388Z,16.40
2019-05-07T10:34:46.493Z,15.98
2019-05-07T10:37:16.309Z,15.85
2019-05-07T10:39:45.923Z,15.82
2019-05-07T10:42:15.476Z,15.98
2019-05-07T10:44:56.595Z,15.90
2019-05-07T10:47:52.117Z,15.85
2019-05-07T10:50:35.523Z,15.94
2019-05-07T10:52:55.248Z,16.04
2019-05-07T10:55:24.822Z,15.91
2019-05-07T10:57:54.381Z,15.98
2019-05-07T11:00:25.730Z,16.08
2019-05-07T11:02:55.540Z,16.40
2019-05-07T11:05:25.117Z,16.16
2019-05-07T11:07:54.607Z,16.06
2019-05-07T11:10:24.175Z,16.35
2019-05-07T11:12:53.654Z,16.37
2019-05-07T11:15:23.219Z,16.15
2019-05-07T11:18:19.077Z,16.29
2019-05-07T11:20:50.466Z,16.25
2019-05-07T11:23:22.116Z,16.50
2019-05-07T11:25:54.588Z,16.69
2019-05-07T11:28:24.243Z,16.65
2019-05-07T11:30:53.874Z,16.78
2019-05-07T11:33:23.385Z,16.57
2019-05-07T11:35:52.959Z,16.92
2019-05-07T11:38:24.968Z,16.67
2019-05-07T11:40:53.759Z,16.97
2019-05-07T11:43:30.057Z,16.70
2019-05-07T11:46:09.121Z,16.63
2019-05-07T11:48:43.734Z,16.62
2019-05-07T11:51:25.215Z,16.92
2019-05-07T11:54:12.596Z,16.82
2019-05-07T11:56:42.362Z,16.99
2019-05-07T11:59:13.483Z,16.81
2019-05-07T12:01:47.777Z,16.57
2019-05-07T12:04:17.589Z,16.54
2019-05-07T12:06:47.158Z,16.53
2019-05-07T12:09:16.652Z,16.44
2019-05-07T12:11:46.165Z,16.41
2019-05-07T12:14:27.949Z,16.67
2019-05-07T12:16:46.869Z,16.91
2019-05-07T12:19:16.700Z,17.09
2019-05-07T12:21:46.439Z,16.75
2019-05-07T12:24:16.524Z,16.53
2019-05-07T12:26:46.053Z,16.50
2019-05-07T12:29:15.656Z,16.45
2019-05-07T12:32:13.403Z,16.43
2019-05-07T12:34:46.882Z,16.43
2019-05-07T12:37:16.555Z,16.43
2019-05-07T12:39:46.131Z,16.41
2019-05-07T12:42:15.724Z,16.45
2019-05-07T12:44:45.308Z,16.70
2019-05-07T12:47:14.820Z,16.53
2019-05-07T12:49:44.326Z,16.52
2019-05-07T12:52:32.072Z,16.53
2019-05-07T12:55:11.933Z,16.55
2019-05-07T12:57:42.118Z,16.60
2019-05-07T13:00:29.475Z,16.66
2019-05-07T13:03:16.732Z,16.69
2019-05-07T13:05:46.345Z,16.80
2019-05-07T13:08:15.962Z,17.09
2019-05-07T13:10:45.562Z,16.90
2019-05-07T13:13:15.148Z,16.83
2019-05-07T13:15:44.733Z,16.82
2019-05-07T13:18:14.289Z,16.79
2019-05-07T13:20:44.012Z,16.82
2019-05-07T13:23:13.558Z,16.76
2019-05-07T13:25:43.158Z,16.73
2019-05-07T13:28:12.778Z,16.74
2019-05-07T13:30:43.856Z,16.90
2019-05-07T13:33:13.890Z,16.90
2019-05-07T13:35:44.434Z,16.88
2019-05-07T13:38:32.276Z,16.83
2019-05-07T13:41:19.289Z,16.84
2019-05-07T13:44:03.692Z,16.94
2019-05-07T13:46:33.845Z,17.01
2019-05-07T13:49:03.618Z,17.22
2019-05-07T13:51:33.856Z,17.35
2019-05-07T13:54:03.879Z,17.33
2019-05-07T13:56:33.415Z,17.49
2019-05-07T13:59:05.056Z,17.61
2019-05-07T14:01:46.351Z,17.78
2019-05-07T14:04:15.978Z,18.01
2019-05-07T14:06:45.554Z,18.12
2019-05-07T14:09:23.872Z,18.09
2019-05-07T14:11:52.689Z,18.08
2019-05-07T14:14:22.683Z,17.91
2019-05-07T14:16:52.979Z,17.94
2019-05-07T14:19:22.792Z,18.74
2019-05-07T14:21:52.723Z,18.32
2019-05-07T14:24:22.575Z,18.27
2019-05-07T14:26:52.926Z,18.01
2019-05-07T14:29:24.671Z,18.04
2019-05-07T14:32:02.320Z,18.45
2019-05-07T14:34:35.123Z,19.05
2019-05-07T14:37:17.234Z,18.84
2019-05-07T14:39:46.726Z,18.66
2019-05-07T14:42:22.513Z,21.16
2019-05-07T14:44:52.765Z,19.45
2019-05-07T14:47:22.564Z,19.11
2019-05-07T14:49:52.925Z,19.58
2019-05-07T14:52:32.130Z,20.10
2019-05-07T14:54:54.262Z,19.55
2019-05-07T14:57:23.928Z,19.48
2019-05-07T14:59:53.575Z,19.32
2019-05-07T15:02:23.646Z,19.30
2019-05-07T15:04:53.302Z,19.31
2019-05-07T15:07:22.883Z,19.08
2019-05-07T15:09:52.457Z,19.12
2019-05-07T15:12:23.417Z,19.05
2019-05-07T15:14:53.219Z,19.11
2019-05-07T15:17:33.219Z,19.10
2019-05-07T15:20:03.007Z,19.10
2019-05-07T15:22:49.120Z,19.14
2019-05-07T15:25:13.676Z,19.15
2019-05-07T15:27:43.587Z,18.98
2019-05-07T15:30:13.628Z,18.92
2019-05-07T15:32:43.600Z,18.91
2019-05-07T15:35:13.469Z,18.84
2019-05-07T15:37:43.027Z,18.85
2019-05-07T15:40:12.970Z,18.89
2019-05-07T15:42:42.466Z,18.98
2019-05-07T15:45:12.666Z,18.95
2019-05-07T15:47:46.009Z,18.99
2019-05-07T15:50:15.682Z,18.84
2019-05-07T15:52:58.455Z,19.00
2019-05-07T15:55:24.611Z,18.78
2019-05-07T15:57:54.192Z,19.12
2019-05-07T16:00:25.585Z,19.06
2019-05-07T16:03:02.053Z,18.96
2019-05-07T16:05:31.931Z,18.94
2019-05-07T16:08:03.844Z,19.07
2019-05-07T16:10:32.801Z,19.15
2019-05-07T16:13:02.543Z,19.17
2019-05-07T16:15:32.161Z,19.19
2019-05-07T16:18:06.067Z,19.16
2019-05-07T16:20:35.600Z,19.19
2019-05-07T16:23:14.867Z,19.08
2019-05-07T16:25:36.407Z,19.08
2019-05-07T16:28:06.063Z,19.20
2019-05-07T16:30:35.689Z,19.26
2019-05-07T16:33:05.356Z,19.27
2019-05-07T16:35:34.982Z,19.29
2019-05-07T16:38:04.540Z,19.30
2019-05-07T16:40:34.063Z,19.28
2019-05-07T16:43:03.679Z,19.28
2019-05-07T16:45:33.221Z,19.26
2019-05-07T16:48:03.252Z,19.33
2019-05-07T16:50:33.003Z,19.29
2019-05-07T16:53:02.984Z,19.26
2019-05-07T16:55:36.905Z,19.24
2019-05-07T16:58:12.546Z,19.22
2019-05-07T17:00:45.055Z,19.24
2019-05-07T17:03:19.052Z,19.18
2019-05-07T17:05:49.650Z,19.16
2019-05-07T17:08:27.151Z,19.13
2019-05-07T17:10:56.849Z,19.11
2019-05-07T17:13:26.420Z,19.02
2019-05-07T17:15:57.217Z,19.00
2019-05-07T17:18:27.687Z,18.99
2019-05-07T17:20:58.080Z,18.91
2019-05-07T17:23:42.841Z,18.85
2019-05-07T17:25:59.098Z,18.80
2019-05-07T17:28:28.615Z,18.75
2019-05-07T17:30:58.236Z,18.67
2019-05-07T17:33:27.974Z,18.63
2019-05-07T17:35:57.617Z,18.57
2019-05-07T17:38:27.113Z,18.49
2019-05-07T17:41:09.964Z,18.43
2019-05-07T17:43:28.207Z,18.35
2019-05-07T17:45:57.691Z,18.29
2019-05-07T17:48:27.173Z,18.23
2019-05-07T17:51:15.645Z,18.15
2019-05-07T17:53:56.814Z,18.06
2019-05-07T17:56:16.343Z,17.98
2019-05-07T17:58:45.822Z,17.91
2019-05-07T18:01:17.669Z,17.83
2019-05-07T18:03:47.219Z,17.76
2019-05-07T18:06:16.692Z,17.68
2019-05-07T18:08:46.149Z,17.62
2019-05-07T18:11:20.903Z,17.50
2019-05-07T18:13:46.966Z,17.43
2019-05-07T18:16:53.382Z,17.33
2019-05-07T18:19:22.942Z,17.26
2019-05-07T18:21:52.580Z,17.17
2019-05-07T18:24:22.421Z,17.12
2019-05-07T18:26:52.625Z,17.05
2019-05-07T18:29:22.601Z,16.99
2019-05-07T18:31:55.741Z,16.94
2019-05-07T18:34:25.216Z,16.89
2019-05-07T18:36:54.693Z,16.86
2019-05-07T18:39:24.203Z,16.81
2019-05-07T18:41:53.656Z,16.75
2019-05-07T18:44:23.225Z,16.71
2019-05-07T18:46:53.040Z,16.64
2019-05-07T18:49:22.524Z,16.56
2019-05-07T18:51:52.272Z,16.51
2019-05-07T18:54:30.296Z,16.46
2019-05-07T18:56:53.064Z,16.38
2019-05-07T18:59:24.548Z,16.33
2019-05-07T19:01:54.080Z,16.29
2019-05-07T19:04:23.632Z,16.19
2019-05-07T19:06:53.162Z,16.15
2019-05-07T19:09:22.676Z,16.08
2019-05-07T19:11:52.398Z,15.97
2019-05-07T19:14:22.794Z,15.96
2019-05-07T19:16:52.716Z,15.92
2019-05-07T19:19:22.445Z,15.86
2019-05-07T19:21:52.978Z,15.81
2019-05-07T19:24:26.091Z,15.75
2019-05-07T19:26:53.978Z,15.71
2019-05-07T19:29:23.758Z,15.66
2019-05-07T19:31:53.573Z,15.62
2019-05-07T19:34:23.275Z,15.55
2019-05-07T19:36:52.929Z,15.50
2019-05-07T19:39:23.437Z,15.47
2019-05-07T19:41:53.063Z,15.43
2019-05-07T19:44:22.637Z,15.39
2019-05-07T19:46:52.591Z,15.37
2019-05-07T19:49:22.082Z,15.33
2019-05-07T19:51:52.360Z,15.23
2019-05-07T19:54:22.855Z,15.18
2019-05-07T19:56:52.503Z,15.19
2019-05-07T19:59:22.335Z,15.13
2019-05-07T20:01:56.804Z,15.10
2019-05-07T20:04:26.349Z,15.07
2019-05-07T20:06:55.895Z,15.03
2019-05-07T20:09:29.773Z,15.06
2019-05-07T20:11:59.658Z,14.88
2019-05-07T20:14:29.544Z,14.72
2019-05-07T20:16:59.120Z,14.65
2019-05-07T20:19:28.654Z,14.54
2019-05-07T20:21:58.119Z,14.48
2019-05-07T20:24:27.621Z,14.49
2019-05-07T20:26:57.544Z,14.45
2019-05-07T20:29:26.981Z,14.38
2019-05-07T20:31:56.458Z,14.22
2019-05-07T20:34:26.056Z,14.17
2019-05-07T20:36:55.602Z,14.07
2019-05-07T20:39:25.112Z,13.99
2019-05-07T20:41:55.117Z,14.03
2019-05-07T20:44:24.680Z,14.02
2019-05-07T20:46:54.653Z,14.00
2019-05-07T20:49:24.138Z,13.98
2019-05-07T20:51:53.686Z,14.06
2019-05-07T20:54:33.602Z,14.13
2019-05-07T20:57:06.090Z,14.12
2019-05-07T20:59:35.577Z,14.10
2019-05-07T21:02:05.519Z,14.09
2019-05-07T21:04:35.024Z,14.13
2019-05-07T21:07:04.680Z,14.17
2019-05-07T21:09:34.180Z,14.07
2019-05-07T21:12:03.661Z,13.97
2019-05-07T21:14:33.257Z,13.98
2019-05-07T21:17:02.786Z,14.01
2019-05-07T21:19:33.240Z,13.92
2019-05-07T21:22:02.761Z,13.89
2019-05-07T21:24:33.019Z,13.82
2019-05-07T21:27:02.810Z,13.73
2019-05-07T21:29:32.789Z,13.70
2019-05-07T21:32:03.230Z,13.63
2019-05-07T21:34:33.011Z,13.54
2019-05-07T21:37:03.269Z,13.49
2019-05-07T21:39:33.183Z,13.46
2019-05-07T21:42:02.727Z,13.46
2019-05-07T21:44:32.722Z,13.46
2019-05-07T21:47:03.854Z,13.43
2019-05-07T21:49:33.454Z,13.38
2019-05-07T21:52:03.024Z,13.27
2019-05-07T21:55:02.396Z,13.24
2019-05-07T21:57:54.650Z,13.24
2019-05-07T22:00:42.150Z,13.18
2019-05-07T22:03:14.623Z,13.21
2019-05-07T22:05:44.441Z,13.17
2019-05-07T22:08:13.966Z,13.06
2019-05-07T22:10:43.474Z,13.06
2019-05-07T22:13:13.076Z,13.03
2019-05-07T22:15:42.617Z,13.01
2019-05-07T22:18:12.146Z,12.96
2019-05-07T22:20:42.632Z,12.94
2019-05-07T22:23:12.188Z,13.02
2019-05-07T22:25:42.256Z,13.01
2019-05-07T22:28:13.304Z,13.01
2019-05-07T22:30:52.767Z,13.05
2019-05-07T22:33:30.918Z,13.04
2019-05-07T22:36:01.819Z,12.96
2019-05-07T22:38:32.360Z,13.01
2019-05-07T22:41:02.202Z,12.92
2019-05-07T22:43:31.949Z,12.76
2019-05-07T22:46:01.447Z,12.75
2019-05-07T22:48:32.492Z,12.73
2019-05-07T22:51:02.725Z,12.72
2019-05-07T22:53:32.855Z,12.70
2019-05-07T22:56:03.194Z,12.56
2019-05-07T22:58:36.780Z,12.60
2019-05-07T23:01:08.435Z,12.60
2019-05-07T23:03:37.932Z,12.54
2019-05-07T23:06:07.539Z,12.49
2019-05-07T23:08:42.469Z,12.42
2019-05-07T23:11:12.202Z,12.40
2019-05-07T23:13:42.703Z,12.29
2019-05-07T23:16:12.744Z,12.30
2019-05-07T23:18:43.004Z,12.26
2019-05-07T23:21:12.589Z,12.32
2019-05-07T23:23:42.363Z,12.27
2019-05-07T23:26:14.663Z,12.31
2019-05-07T23:28:43.024Z,12.26
2019-05-07T23:31:12.551Z,12.23
2019-05-07T23:33:42.034Z,12.21
2019-05-07T23:36:12.905Z,12.14
2019-05-07T23:38:42.761Z,12.07
2019-05-07T23:41:36.797Z,12.11
2019-05-07T23:44:16.677Z,12.05
2019-05-07T23:46:46.289Z,12.05
2019-05-07T23:49:16.013Z,12.06
2019-05-07T23:51:45.694Z,12.09
2019-05-07T23:54:15.282Z,12.20
2019-05-07T23:56:44.770Z,12.03
2019-05-07T23:59:14.991Z,12.00
